3MA3 weather

Seapuit Heliport
Barnstable, Massachusetts, United States

Public forecast

Using degrees Fahrenheit for public forecast. Weather courtesy of forecast.io.

METAR (pilot weather report)

Closest report is Cape Cod Coast Guard Air Station, 5.5 nm (10.2 km) WNW. Retrieved 2019/07/24 01:35 UTC (14 minutes ago):

KFMH 240135Z 19003KT 10SM FEW055 BKN070 OVC110 17/15 A2995 RMK AO2

TAF (pilot weather forecast)

Forecast is more than 12 hours old.

Closest forecast is Cape Cod Coast Guard Air Station, 5.5 nm (10.2 km) WNW. Retrieved 2019/07/23 00:27 UTC (1 day ago):

TAF KFMH 232325Z 2400/2424 35004KT P6SM SCT015 OVC050 FM240800 00000KT P6SM -SHRA OVC025 FM241100 04006KT P6SM VCSH OVC040 FM241400 03007KT P6SM BKN030 FM241900 05008KT P6SM BKN250